createdAt,value
2017-12-19T00:00:58.352Z,71.70
2017-12-19T00:03:24.479Z,71.68
2017-12-19T00:05:51.479Z,76.57
2017-12-19T00:08:17.660Z,66.50
2017-12-19T00:10:43.770Z,66.47
2017-12-19T00:13:09.910Z,64.22
2017-12-19T00:15:36.029Z,73.45
2017-12-19T00:18:02.171Z,71.45
2017-12-19T00:20:28.302Z,68.22
2017-12-19T00:22:54.416Z,67.10
2017-12-19T00:25:20.528Z,74.25
2017-12-19T00:27:46.661Z,69.62
2017-12-19T00:30:12.764Z,68.15
2017-12-19T00:32:39.654Z,81.35
2017-12-19T00:35:05.809Z,84.57
2017-12-19T00:37:31.941Z,79.40
2017-12-19T00:39:58.122Z,71.53
2017-12-19T00:42:24.223Z,72.50
2017-12-19T00:44:50.361Z,71.15
2017-12-19T00:47:16.502Z,73.85
2017-12-19T00:49:42.616Z,71.57
2017-12-19T00:52:09.460Z,76.87
2017-12-19T00:54:36.315Z,70.47
2017-12-19T00:57:02.429Z,67.05
2017-12-19T00:59:28.692Z,67.22
2017-12-19T01:01:54.818Z,69.43
2017-12-19T01:04:21.148Z,70.40
2017-12-19T01:06:47.260Z,73.12
2017-12-19T01:09:13.375Z,61.28
2017-12-19T01:11:40.233Z,71.70
2017-12-19T01:14:07.105Z,91.60
2017-12-19T01:16:33.258Z,71.70
2017-12-19T01:18:59.386Z,62.05
2017-12-19T01:21:26.266Z,75.15
2017-12-19T01:23:52.406Z,81.22
2017-12-19T01:26:18.516Z,82.68
2017-12-19T01:28:45.380Z,81.78
2017-12-19T01:31:11.633Z,90.12
2017-12-19T01:33:37.772Z,83.68
2017-12-19T01:36:04.652Z,99.40
2017-12-19T01:38:30.768Z,90.75
2017-12-19T01:40:58.457Z,89.82
2017-12-19T01:43:24.560Z,95.65
2017-12-19T01:45:50.681Z,85.10
2017-12-19T01:48:17.552Z,97.72
2017-12-19T01:50:43.682Z,85.70
2017-12-19T01:53:09.778Z,84.18
2017-12-19T01:55:35.882Z,78.15
2017-12-19T01:58:02.021Z,80.78
2017-12-19T02:00:28.907Z,74.32
2017-12-19T02:02:55.014Z,80.75
2017-12-19T02:05:21.125Z,76.25
2017-12-19T02:07:47.249Z,72.07
2017-12-19T02:10:13.392Z,80.47
2017-12-19T02:12:39.566Z,81.87
2017-12-19T02:15:05.695Z,74.45
2017-12-19T02:17:31.800Z,82.75
2017-12-19T02:19:57.944Z,82.53
2017-12-19T02:22:24.106Z,76.78
2017-12-19T02:24:50.236Z,82.72
2017-12-19T02:27:16.671Z,72.50
2017-12-19T02:29:42.795Z,87.43
2017-12-19T02:32:09.639Z,90.10
2017-12-19T02:34:35.752Z,93.55
2017-12-19T02:37:01.897Z,90.12
2017-12-19T02:39:28.036Z,93.32
2017-12-19T02:41:54.145Z,87.00
2017-12-19T02:44:21.041Z,99.82
2017-12-19T02:46:47.155Z,90.82
2017-12-19T02:49:13.275Z,84.25
2017-12-19T02:51:39.384Z,92.07
2017-12-19T02:54:05.492Z,86.22
2017-12-19T02:56:31.620Z,97.40
2017-12-19T02:58:58.501Z,89.55
2017-12-19T03:01:24.721Z,80.95
2017-12-19T03:03:50.888Z,71.43
2017-12-19T03:06:17.045Z,83.78
2017-12-19T03:08:43.174Z,80.95
2017-12-19T03:11:09.305Z,97.35
2017-12-19T03:13:35.425Z,83.70
2017-12-19T03:16:01.536Z,90.30
2017-12-19T03:18:27.656Z,82.10
2017-12-19T03:20:53.787Z,82.97
2017-12-19T03:23:19.902Z,89.53
2017-12-19T03:25:48.036Z,79.28
2017-12-19T03:28:14.160Z,75.12
2017-12-19T03:30:40.276Z,75.37
2017-12-19T03:33:06.388Z,79.45
2017-12-19T03:35:32.524Z,81.68
2017-12-19T03:37:58.637Z,85.97
2017-12-19T03:40:24.758Z,84.22
2017-12-19T03:42:50.864Z,77.55
2017-12-19T03:45:17.540Z,97.78
2017-12-19T03:47:44.399Z,83.82
2017-12-19T03:50:11.472Z,82.55
2017-12-19T03:52:37.597Z,87.82
2017-12-19T03:55:04.441Z,79.57
2017-12-19T03:57:30.593Z,101.35
2017-12-19T03:59:57.505Z,86.03
2017-12-19T04:02:23.619Z,85.22
2017-12-19T04:04:49.738Z,94.28
2017-12-19T04:07:16.304Z,71.57
2017-12-19T04:09:43.220Z,77.97
2017-12-19T04:12:09.351Z,77.60
2017-12-19T04:14:35.500Z,83.95
2017-12-19T04:17:01.677Z,84.37
2017-12-19T04:19:27.816Z,85.75
2017-12-19T04:21:53.923Z,76.35
2017-12-19T04:24:20.046Z,84.03
2017-12-19T04:26:46.179Z,83.40
2017-12-19T04:29:12.316Z,97.47
2017-12-19T04:31:38.441Z,81.18
2017-12-19T04:34:06.816Z,77.10
2017-12-19T04:36:33.678Z,85.40
2017-12-19T04:38:59.950Z,72.43
2017-12-19T04:41:26.159Z,65.95
2017-12-19T04:43:52.274Z,83.90
2017-12-19T04:46:18.478Z,85.32
2017-12-19T04:48:44.616Z,79.25
2017-12-19T04:51:10.724Z,85.32
2017-12-19T04:53:37.576Z,73.60
2017-12-19T04:56:04.433Z,83.10
2017-12-19T04:58:31.661Z,83.95
2017-12-19T05:00:57.788Z,78.28
2017-12-19T05:03:23.898Z,79.28
2017-12-19T05:05:50.127Z,84.85
2017-12-19T05:08:16.972Z,84.03
2017-12-19T05:10:43.103Z,82.18
2017-12-19T05:13:09.969Z,80.95
2017-12-19T05:15:36.886Z,75.62
2017-12-19T05:18:03.037Z,73.28
2017-12-19T05:20:29.206Z,71.20
2017-12-19T05:22:55.326Z,73.80
2017-12-19T05:25:21.492Z,80.95
2017-12-19T05:27:47.621Z,68.82
2017-12-19T05:30:13.716Z,66.18
2017-12-19T05:32:39.832Z,73.40
2017-12-19T05:35:06.700Z,73.12
2017-12-19T05:37:32.842Z,65.07
2017-12-19T05:40:00.530Z,73.95
2017-12-19T05:42:26.652Z,68.72
2017-12-19T05:44:52.866Z,81.60
2017-12-19T05:47:19.785Z,79.05
2017-12-19T05:49:45.919Z,67.95
2017-12-19T05:52:12.133Z,80.87
2017-12-19T05:54:38.324Z,84.55
2017-12-19T05:57:04.509Z,75.45
2017-12-19T05:59:30.716Z,81.60
2017-12-19T06:01:56.849Z,80.60
2017-12-19T06:04:22.983Z,98.75
2017-12-19T06:06:49.116Z,75.93
2017-12-19T06:09:15.279Z,79.43
2017-12-19T06:11:41.386Z,84.97
2017-12-19T06:14:08.300Z,89.43
2017-12-19T06:16:34.462Z,81.25
2017-12-19T06:19:00.671Z,79.47
2017-12-19T06:21:26.816Z,73.07
2017-12-19T06:23:53.089Z,72.47
2017-12-19T06:26:19.225Z,83.18
2017-12-19T06:28:45.379Z,86.90
2017-12-19T06:31:11.509Z,89.22
2017-12-19T06:33:37.658Z,79.80
2017-12-19T06:36:04.023Z,77.30
2017-12-19T06:38:30.418Z,77.97
2017-12-19T06:40:56.727Z,80.75
2017-12-19T06:43:23.070Z,67.32
2017-12-19T06:45:50.132Z,72.00
2017-12-19T06:48:17.302Z,77.68
2017-12-19T06:50:43.415Z,83.10
2017-12-19T06:53:09.541Z,92.10
2017-12-19T06:55:36.015Z,76.60
2017-12-19T06:58:02.404Z,80.22
2017-12-19T07:00:28.722Z,84.20
2017-12-19T07:02:55.822Z,88.45
2017-12-19T07:05:22.187Z,104.47
2017-12-19T07:07:48.593Z,99.50
2017-12-19T07:10:14.875Z,97.15
2017-12-19T07:12:41.241Z,91.80
2017-12-19T07:15:07.554Z,95.22
2017-12-19T07:17:33.873Z,103.95
2017-12-19T07:22:34.545Z,99.82
2017-12-19T07:25:00.749Z,101.95
2017-12-19T07:27:26.911Z,99.87
2017-12-19T07:29:53.083Z,86.60
2017-12-19T07:32:19.216Z,98.40
2017-12-19T07:34:45.371Z,98.05
2017-12-19T07:37:15.360Z,100.75
2017-12-19T07:39:41.642Z,93.75
2017-12-19T07:42:07.790Z,95.40
2017-12-19T07:44:33.907Z,96.22
2017-12-19T07:47:00.020Z,92.95
2017-12-19T07:49:26.160Z,86.40
2017-12-19T07:51:52.296Z,92.57
2017-12-19T07:54:19.246Z,103.47
2017-12-19T07:56:50.539Z,88.47
2017-12-19T07:59:16.702Z,94.07
2017-12-19T08:01:42.812Z,78.93
2017-12-19T08:04:08.913Z,93.32
2017-12-19T08:06:35.077Z,87.05
2017-12-19T08:09:01.229Z,88.12
2017-12-19T08:11:27.345Z,86.30
2017-12-19T08:13:53.455Z,100.75
2017-12-19T08:16:21.938Z,91.15
2017-12-19T08:18:48.252Z,88.85
2017-12-19T08:21:14.587Z,95.18
2017-12-19T08:23:41.010Z,87.18
2017-12-19T08:26:07.346Z,82.35
2017-12-19T08:28:33.701Z,94.57
2017-12-19T08:31:00.032Z,79.75
2017-12-19T08:33:30.012Z,79.75
2017-12-19T08:35:56.319Z,87.93
2017-12-19T08:38:22.634Z,78.65
2017-12-19T08:40:48.942Z,89.93
2017-12-19T08:43:15.270Z,93.07
2017-12-19T08:45:41.596Z,87.55
2017-12-19T08:48:07.903Z,106.68
2017-12-19T08:53:05.568Z,104.97
2017-12-19T08:55:31.843Z,95.38
2017-12-19T08:57:58.172Z,99.62
2017-12-19T09:00:24.456Z,93.93
2017-12-19T09:02:50.817Z,103.40
2017-12-19T09:05:17.278Z,99.05
2017-12-19T09:07:43.577Z,98.78
2017-12-19T09:12:43.246Z,102.45
2017-12-19T09:15:09.357Z,103.30
2017-12-19T09:17:36.199Z,92.35
2017-12-19T09:20:02.313Z,107.70
2017-12-19T09:22:29.158Z,120.25
2017-12-19T09:24:55.286Z,93.82
2017-12-19T09:27:24.632Z,116.40
2017-12-19T09:29:50.978Z,108.87
2017-12-19T09:32:17.612Z,130.15
2017-12-19T09:34:43.859Z,118.72
2017-12-19T09:37:10.909Z,125.43
2017-12-19T09:39:37.208Z,120.00
2017-12-19T09:42:03.554Z,149.62
2017-12-19T09:44:35.960Z,101.25
2017-12-19T09:47:02.290Z,129.55
2017-12-19T09:49:28.606Z,113.43
2017-12-19T09:51:54.906Z,114.25
2017-12-19T09:54:21.925Z,119.20
2017-12-19T09:56:48.274Z,121.60
2017-12-19T09:59:18.241Z,95.28
2017-12-19T10:01:44.560Z,105.43
2017-12-19T10:04:10.867Z,109.32
2017-12-19T10:06:37.255Z,95.03
2017-12-19T10:09:03.587Z,107.35
2017-12-19T10:11:30.635Z,115.03
2017-12-19T10:13:57.713Z,100.62
2017-12-19T10:16:30.188Z,97.75
2017-12-19T10:18:56.312Z,103.97
2017-12-19T10:21:22.426Z,104.35
2017-12-19T10:23:48.536Z,114.12
2017-12-19T10:26:14.650Z,104.60
2017-12-19T10:28:40.837Z,92.40
2017-12-19T10:31:07.720Z,95.15
2017-12-19T10:33:33.828Z,93.62
2017-12-19T10:36:02.133Z,100.85
2017-12-19T10:38:28.468Z,104.97
2017-12-19T10:40:54.774Z,105.93
2017-12-19T10:43:21.108Z,107.15
2017-12-19T10:45:48.150Z,91.50
2017-12-19T10:48:14.472Z,97.65
2017-12-19T10:50:41.569Z,105.80
2017-12-19T10:53:08.593Z,99.10
2017-12-19T10:55:38.331Z,104.57
2017-12-19T10:58:04.644Z,112.82
2017-12-19T11:00:30.973Z,95.60
2017-12-19T11:02:57.254Z,114.37
2017-12-19T11:05:23.610Z,79.05
2017-12-19T11:07:49.882Z,99.95
2017-12-19T11:10:16.196Z,101.75
2017-12-19T11:12:42.521Z,93.15
2017-12-19T11:15:12.657Z,95.87
2017-12-19T11:17:38.953Z,95.18
2017-12-19T11:20:05.260Z,92.35
2017-12-19T11:22:31.584Z,98.57
2017-12-19T11:24:57.897Z,95.82
2017-12-19T11:27:24.200Z,93.45
2017-12-19T11:29:50.545Z,107.75
2017-12-19T11:32:16.909Z,106.97
2017-12-19T11:34:49.927Z,98.53
2017-12-19T11:37:16.044Z,87.85
2017-12-19T11:39:42.917Z,102.18
2017-12-19T11:42:09.060Z,111.80
2017-12-19T11:44:35.186Z,89.47
2017-12-19T11:47:01.380Z,105.37
2017-12-19T11:49:27.551Z,87.22
2017-12-19T11:51:58.010Z,105.28
2017-12-19T11:54:24.325Z,98.15
2017-12-19T11:56:51.385Z,98.82
2017-12-19T11:59:17.689Z,99.95
2017-12-19T12:01:44.138Z,95.60
2017-12-19T12:04:10.442Z,106.97
2017-12-19T12:06:36.786Z,91.87
2017-12-19T12:09:07.365Z,94.72
2017-12-19T12:11:33.702Z,76.20
2017-12-19T12:14:00.018Z,82.82
2017-12-19T12:16:26.320Z,86.75
2017-12-19T12:18:53.367Z,83.47
2017-12-19T12:21:19.707Z,76.53
2017-12-19T12:23:46.032Z,76.25
2017-12-19T12:28:44.495Z,83.00
2017-12-19T12:31:10.612Z,80.43
2017-12-19T12:33:36.721Z,94.85
2017-12-19T12:36:02.848Z,97.93
2017-12-19T12:38:28.956Z,79.57
2017-12-19T12:40:55.081Z,79.78
2017-12-19T12:43:21.938Z,88.15
2017-12-19T12:45:51.810Z,76.43
2017-12-19T12:48:18.856Z,88.87
2017-12-19T12:50:45.170Z,81.40
2017-12-19T12:53:11.524Z,85.03
2017-12-19T12:55:38.586Z,84.68
2017-12-19T12:58:04.959Z,83.95
2017-12-19T13:00:38.385Z,84.82
2017-12-19T13:03:05.471Z,74.93
2017-12-19T13:05:31.786Z,74.37
2017-12-19T13:07:58.158Z,74.95
2017-12-19T13:10:24.518Z,80.05
2017-12-19T13:12:50.832Z,82.12
2017-12-19T13:15:17.136Z,80.97
2017-12-19T13:17:46.748Z,77.50
2017-12-19T13:20:13.041Z,77.05
2017-12-19T13:22:39.402Z,69.07
2017-12-19T13:25:06.459Z,82.15
2017-12-19T13:27:34.272Z,87.75
2017-12-19T13:30:01.444Z,76.00
2017-12-19T13:32:28.348Z,72.43
2017-12-19T13:34:54.489Z,67.22
2017-12-19T13:37:26.652Z,85.18
2017-12-19T13:39:52.748Z,68.40
2017-12-19T13:42:19.615Z,72.10
2017-12-19T13:44:46.468Z,74.05
2017-12-19T13:47:13.301Z,75.87
2017-12-19T13:49:39.417Z,78.72
2017-12-19T13:52:05.617Z,69.45
2017-12-19T13:54:31.745Z,79.15
2017-12-19T13:56:58.613Z,70.72
2017-12-19T13:59:24.718Z,77.72
2017-12-19T14:01:50.838Z,71.90
2017-12-19T14:04:16.996Z,80.57
2017-12-19T14:06:43.138Z,73.45
2017-12-19T14:09:09.264Z,80.60
2017-12-19T14:11:35.372Z,77.97
2017-12-19T14:14:01.881Z,74.18
2017-12-19T14:16:30.572Z,70.20
2017-12-19T14:18:57.484Z,74.57
2017-12-19T14:21:23.726Z,70.82
2017-12-19T14:23:49.868Z,75.37
2017-12-19T14:26:15.991Z,68.05
2017-12-19T14:28:42.120Z,66.30
2017-12-19T14:31:08.240Z,73.00
2017-12-19T14:33:34.375Z,66.60
2017-12-19T14:36:00.504Z,74.32
2017-12-19T14:38:26.692Z,77.30
2017-12-19T14:40:53.568Z,71.30
2017-12-19T14:43:19.740Z,68.35
2017-12-19T14:45:46.012Z,68.70
2017-12-19T14:48:12.465Z,79.90
2017-12-19T14:50:38.787Z,71.95
2017-12-19T14:53:05.480Z,69.85
2017-12-19T14:55:31.812Z,80.35
2017-12-19T14:57:58.872Z,65.03
2017-12-19T15:00:25.644Z,78.57
2017-12-19T15:02:51.776Z,59.97
2017-12-19T15:05:17.880Z,81.57
2017-12-19T15:07:44.000Z,74.37
2017-12-19T15:10:10.376Z,62.90
2017-12-19T15:12:36.692Z,62.35
2017-12-19T15:15:03.764Z,73.65
2017-12-19T15:17:29.885Z,66.72
2017-12-19T15:19:56.012Z,83.75
2017-12-19T15:22:24.631Z,71.07
2017-12-19T15:24:51.059Z,76.47
2017-12-19T15:27:17.393Z,71.32
2017-12-19T15:29:43.667Z,64.87
2017-12-19T15:32:09.999Z,65.87
2017-12-19T15:34:36.442Z,65.15
2017-12-19T15:37:03.403Z,65.20
2017-12-19T15:39:29.744Z,83.82
2017-12-19T15:41:56.084Z,77.35
2017-12-19T15:44:22.421Z,71.18
2017-12-19T15:46:48.851Z,66.12
2017-12-19T15:49:15.235Z,74.00
2017-12-19T15:51:44.714Z,67.25
2017-12-19T15:54:11.798Z,79.80
2017-12-19T15:56:38.129Z,63.03
2017-12-19T15:59:04.419Z,63.30
2017-12-19T16:01:30.866Z,56.55
2017-12-19T16:03:57.225Z,71.72
2017-12-19T16:06:24.342Z,63.20
2017-12-19T16:08:50.759Z,64.97
2017-12-19T16:11:17.089Z,70.87
2017-12-19T16:13:50.238Z,58.85
2017-12-19T16:16:16.349Z,69.47
2017-12-19T16:18:42.450Z,68.68
2017-12-19T16:21:08.559Z,56.72
2017-12-19T16:23:34.704Z,70.65
2017-12-19T16:26:01.643Z,68.95
2017-12-19T16:28:27.819Z,65.70
2017-12-19T16:30:57.355Z,66.25
2017-12-19T16:33:23.674Z,55.55
2017-12-19T16:35:50.749Z,56.55
2017-12-19T16:38:16.865Z,55.17
2017-12-19T16:40:42.986Z,64.18
2017-12-19T16:43:09.922Z,66.45
2017-12-19T16:48:07.239Z,62.17
2017-12-19T16:50:33.332Z,58.87
2017-12-19T16:52:59.476Z,69.78
2017-12-19T16:55:25.628Z,69.78
2017-12-19T16:57:51.968Z,57.97
2017-12-19T17:00:18.345Z,65.95
2017-12-19T17:02:44.664Z,54.30
2017-12-19T17:05:11.003Z,59.53
2017-12-19T17:07:41.096Z,57.60
2017-12-19T17:10:07.406Z,74.35
2017-12-19T17:12:33.692Z,67.65
2017-12-19T17:15:00.017Z,61.00
2017-12-19T17:17:26.334Z,55.20
2017-12-19T17:19:53.400Z,59.92
2017-12-19T17:22:19.715Z,73.50
2017-12-19T17:24:46.752Z,69.25
2017-12-19T17:27:15.248Z,59.30
2017-12-19T17:29:41.576Z,62.10
2017-12-19T17:32:07.912Z,58.70
2017-12-19T17:34:35.003Z,68.82
2017-12-19T17:37:02.069Z,68.93
2017-12-19T17:39:28.344Z,64.68
2017-12-19T17:41:54.673Z,56.05
2017-12-19T17:44:21.081Z,58.03
2017-12-19T17:46:50.930Z,49.70
2017-12-19T17:49:18.060Z,58.22
2017-12-19T17:51:44.225Z,61.63
2017-12-19T17:54:10.565Z,52.70
2017-12-19T17:56:36.867Z,54.13
2017-12-19T17:59:03.178Z,60.90
2017-12-19T18:01:30.298Z,60.75
2017-12-19T18:03:56.485Z,47.40
2017-12-19T18:06:26.247Z,50.38
2017-12-19T18:08:52.593Z,47.60
2017-12-19T18:11:18.935Z,45.05
2017-12-19T18:13:45.318Z,47.08
2017-12-19T18:16:11.696Z,46.60
2017-12-19T18:18:38.070Z,47.13
2017-12-19T18:21:04.637Z,47.60
2017-12-19T18:23:37.968Z,43.38
2017-12-19T18:26:04.906Z,44.67
2017-12-19T18:28:31.091Z,45.85
2017-12-19T18:30:57.372Z,40.83
2017-12-19T18:33:23.734Z,50.05
2017-12-19T18:35:50.714Z,44.03
2017-12-19T18:38:24.565Z,45.95
2017-12-19T18:40:50.807Z,48.78
2017-12-19T18:43:17.030Z,44.50
2017-12-19T18:45:44.077Z,46.40
2017-12-19T18:48:10.218Z,48.08
2017-12-19T18:50:36.408Z,45.35
2017-12-19T18:53:02.581Z,46.83
2017-12-19T18:55:35.611Z,42.88
2017-12-19T18:58:01.965Z,43.28
2017-12-19T19:00:28.156Z,47.53
2017-12-19T19:02:54.240Z,47.60
2017-12-19T19:05:20.352Z,44.92
2017-12-19T19:07:47.337Z,44.45
2017-12-19T19:10:13.631Z,36.90
2017-12-19T19:12:39.817Z,45.90
2017-12-19T19:15:09.883Z,42.50
2017-12-19T19:17:36.021Z,39.08
2017-12-19T19:20:02.342Z,38.22
2017-12-19T19:22:29.321Z,43.00
2017-12-19T19:24:55.601Z,40.92
2017-12-19T19:27:22.473Z,35.15
2017-12-19T19:29:56.221Z,40.80
2017-12-19T19:32:22.377Z,35.40
2017-12-19T19:34:49.296Z,36.83
2017-12-19T19:37:15.509Z,41.30
2017-12-19T19:39:41.694Z,33.22
2017-12-19T19:42:08.656Z,36.33
2017-12-19T19:44:34.833Z,37.15
2017-12-19T19:47:08.328Z,34.60
2017-12-19T19:49:34.533Z,35.92
2017-12-19T19:52:00.799Z,29.92
2017-12-19T19:54:27.109Z,31.50
2017-12-19T19:56:53.237Z,27.65
2017-12-19T19:59:19.481Z,31.45
2017-12-19T20:01:45.653Z,32.30
2017-12-19T20:04:15.172Z,30.05
2017-12-19T20:06:41.353Z,30.42
2017-12-19T20:09:08.290Z,33.55
2017-12-19T20:11:34.492Z,30.08
2017-12-19T20:14:00.784Z,30.05
2017-12-19T20:16:26.920Z,33.75
2017-12-19T20:18:53.794Z,30.73
2017-12-19T20:21:20.012Z,32.58
2017-12-19T20:23:46.176Z,32.40
2017-12-19T20:26:12.367Z,29.83
2017-12-19T20:28:38.686Z,34.40
2017-12-19T20:31:04.863Z,39.30
2017-12-19T20:33:31.135Z,29.42
2017-12-19T20:35:57.373Z,30.73
2017-12-19T20:38:24.220Z,29.58
2017-12-19T20:40:51.063Z,31.27
2017-12-19T20:43:17.180Z,30.15
2017-12-19T20:45:43.412Z,32.17
2017-12-19T20:48:09.523Z,30.23
2017-12-19T20:50:36.388Z,33.90
2017-12-19T20:53:02.524Z,30.12
2017-12-19T20:55:28.638Z,31.92
2017-12-19T20:57:58.365Z,24.35
2017-12-19T21:00:25.307Z,28.33
2017-12-19T21:02:51.488Z,25.92
2017-12-19T21:05:18.351Z,29.98
2017-12-19T21:07:52.667Z,27.35
2017-12-19T21:10:21.898Z,28.10
2017-12-19T21:12:48.839Z,25.40
2017-12-19T21:15:14.957Z,28.75
2017-12-19T21:17:41.140Z,23.87
2017-12-19T21:20:07.265Z,27.27
2017-12-19T21:22:33.370Z,24.45
2017-12-19T21:24:59.474Z,25.27
2017-12-19T21:27:25.628Z,27.13
2017-12-19T21:29:52.521Z,21.35
2017-12-19T21:32:18.703Z,26.33
2017-12-19T21:34:44.880Z,25.95
2017-12-19T21:37:10.978Z,27.55
2017-12-19T21:39:37.073Z,28.38
2017-12-19T21:42:03.225Z,27.42
2017-12-19T21:44:29.377Z,23.17
2017-12-19T21:46:55.515Z,22.85
2017-12-19T21:49:21.669Z,22.95
2017-12-19T21:51:48.905Z,21.27
2017-12-19T21:54:15.910Z,25.42
2017-12-19T21:56:42.205Z,21.92
2017-12-19T21:59:08.348Z,22.77
2017-12-19T22:01:36.101Z,27.58
2017-12-19T22:04:02.371Z,26.77
2017-12-19T22:06:28.499Z,23.30
2017-12-19T22:08:54.645Z,24.90
2017-12-19T22:11:20.744Z,25.55
2017-12-19T22:13:46.844Z,28.65
2017-12-19T22:16:13.894Z,29.08
2017-12-19T22:18:40.026Z,25.17
2017-12-19T22:21:06.150Z,23.02
2017-12-19T22:23:32.306Z,25.00
2017-12-19T22:25:58.450Z,29.10
2017-12-19T22:28:24.785Z,25.92
2017-12-19T22:30:51.152Z,25.50
2017-12-19T22:33:17.475Z,27.30
2017-12-19T22:35:43.780Z,21.80
2017-12-19T22:38:10.845Z,25.12
2017-12-19T22:40:37.894Z,29.60
2017-12-19T22:43:04.804Z,24.15
2017-12-19T22:45:30.979Z,20.73
2017-12-19T22:47:57.313Z,25.77
2017-12-19T22:50:24.461Z,24.37
2017-12-19T22:52:50.581Z,22.62
2017-12-19T22:55:17.968Z,24.92
2017-12-19T22:57:44.063Z,19.02
2017-12-19T23:00:10.346Z,16.62
2017-12-19T23:02:36.707Z,22.35
2017-12-19T23:05:03.057Z,21.45
2017-12-19T23:07:29.378Z,20.20
2017-12-19T23:09:55.925Z,21.92
2017-12-19T23:12:22.292Z,20.95
2017-12-19T23:14:48.621Z,19.50
2017-12-19T23:17:15.040Z,24.85
2017-12-19T23:19:41.385Z,22.77
2017-12-19T23:22:07.706Z,21.23
2017-12-19T23:24:34.016Z,20.20
2017-12-19T23:27:00.420Z,22.45
2017-12-19T23:29:26.780Z,21.92
2017-12-19T23:31:53.115Z,21.55
2017-12-19T23:34:19.439Z,21.25
2017-12-19T23:36:46.578Z,17.98
2017-12-19T23:39:12.720Z,20.80
2017-12-19T23:41:39.125Z,21.50
2017-12-19T23:44:06.231Z,22.67
2017-12-19T23:46:33.250Z,20.00
2017-12-19T23:48:59.484Z,18.62
2017-12-19T23:51:25.931Z,17.90
2017-12-19T23:53:52.259Z,18.05
2017-12-19T23:56:18.577Z,19.83
2017-12-19T23:58:44.905Z,18.80
